Pahrump, Nevada Weather observations

Data are for observation ending at time listed.
 Day   Time    Ave.   Ave.  Ave.  Vector   Max.   Stn.    Total    Solar   Ave.  
  of    of     Air    Rel.  Wind   Wind    Wind   Baro.  Precip.   Rad.    Soil  
Year   Day     Temp.  Hum.  Speed  Dir.    Gust   Pres.                    Temp. 
2026   (PST)    F      %     mph   deg.    mph     mb.     in.     W/m2     F   
------------------------------------------------------------------------------
 126    0:00   56.9    32    0.0   219      0.1   918.2    0.00       0    74.6
 126    0:10   57.7    32    0.0     0      0.0   918.2    0.00       0    74.5
 126    0:20   58.0    31    0.0     0      0.0   918.2    0.00       0    74.3
 126    0:30   57.5    32    0.0     0      0.0   918.2    0.00       0    74.2
 126    0:40   57.4    33    0.0     0      0.0   918.1    0.00       0    74.0
 126    0:50   57.9    33    0.0     0      0.0   918.2    0.00       0    73.9
 126    1:00   58.5    34    0.0     0      0.0   918.3    0.00       0    73.8
 126    1:10   58.8    34    0.0     0      0.0   918.3    0.00       0    73.6
 126    1:20   59.1    34    0.0     0      0.0   918.4    0.00       0    73.5
 126    1:30   58.8    35    0.1   287      3.8   918.5    0.00       0    73.3
 126    1:40   54.8    39    1.1   309      3.4   918.5    0.00       0    73.2
 126    1:50   53.1    42    0.7   313      4.1   918.5    0.00       0    73.0
 126    2:00   53.2    41    0.0   297      0.1   918.5    0.00       0    72.9
 126    2:10   54.3    40    0.0     0      0.0   918.4    0.00       0    72.8
 126    2:20   55.1    40    0.0   292      0.1   918.4    0.00       0    72.7
 126    2:30   53.8    43    0.4   284      3.5   918.5    0.00       0    72.5
 126    2:40   52.5    43    1.8   308      3.4   918.6    0.00       0    72.4
 126    2:50   52.0    44    0.1   305      2.5   918.7    0.00       0    72.3
 126    3:00   52.5    42    0.0     0      0.0   918.8    0.00       0    72.1
 126    3:10   53.0    41    0.0     0      0.0   918.8    0.00       0    72.0
 126    3:20   52.9    43    0.0   267      0.1   918.8    0.00       0    71.9
 126    3:30   52.7    45    0.0   301      0.1   918.9    0.00       0    71.7
 126    3:40   53.1    42    0.0   322      0.1   918.9    0.00       0    71.6
 126    3:50   53.3    44    0.0   293      0.1   919.0    0.00       0    71.5
 126    4:00   53.0    42    0.0   328      0.1   919.1    0.00       0    71.3
 126    4:10   53.0    42    0.0   323      0.1   919.1    0.00       0    71.2
 126    4:20   52.9    43    0.9    59      2.5   919.1    0.00       0    71.1
 126    4:30   53.3    42    1.4    63      2.9   919.2    0.00       0    71.0
 126    4:40   53.2    42    0.7    31      2.0   919.3    0.00       1    70.9
 126    4:50   52.4    44    1.0    12      2.2   919.4    0.00       3    70.7
 126    5:00   52.3    44    1.1    12      2.6   919.6    0.00       7    70.6
 126    5:10   52.5    45    0.3    49      1.8   919.6    0.00      12    70.5
 126    5:20   53.0    44    0.5    47      1.4   919.7    0.00      32    70.4
 126    5:30   54.8    41    0.0   353      0.6   919.9    0.00      65    70.3
 126    5:40   56.3    39    0.0   246      0.1   920.1    0.00      91    70.2
 126    5:50   56.6    39    0.1   331      3.4   920.4    0.00     117    70.1
 126    6:00   56.8    40    0.8   323      3.5   920.6    0.00     144    70.0
 126    6:10   57.1    40    0.1   306      0.1   920.8    0.00     174    70.0
 126    6:20   57.3    40    0.1   312      0.1   921.0    0.00     205    69.9
 126    6:30   57.4    40    0.1   314      0.1   921.2    0.00     237    69.8
 126    6:40   57.7    41    0.1   310      0.1   921.5    0.00     270    69.8
 126    6:50   58.6    36    1.7   342      4.1   921.7    0.00     304    69.7
 126    7:00   59.5    35    0.1   323      0.1   921.9    0.00     338    69.7
 126    7:10   60.0    35    0.1   319      0.1   922.1    0.00     372    69.7
 126    7:20   61.1    35    0.1   298      0.1   922.2    0.00     406    69.6
 126    7:30   62.4    34    0.0   337      0.1   922.4    0.00     439    69.6
 126    7:40   63.2    33    0.0   108      2.3   922.5    0.00     472    69.6
 126    7:50   63.4    33    0.0   294      0.1   922.6    0.00     504    69.6
 126    8:00   63.4    34    0.1   302      0.1   922.8    0.00     536    69.6
 126    8:10   63.6    34    1.5   298      5.6   922.9    0.00     567    69.6
 126    8:20   64.2    33    1.7   182      4.9   923.0    0.00     597    69.7
 126    8:30   65.9    31    1.5   156      4.4   923.1    0.00     628    69.8
 126    8:40   66.3    30    0.1    88      3.9   923.3    0.00     657    70.0
 126    8:50   67.5    30    0.0   246      0.1   923.4    0.00     685    70.4
 126    9:00   67.3    30    0.0   296      0.1   923.5    0.00     712    70.7
 126    9:10   68.8    29    0.0   320      0.1   923.6    0.00     738    71.1
 126    9:20   68.2    29    0.2   322      3.7   923.7    0.00     762    71.5
 126    9:30   69.2    29    0.0   281      0.1   923.8    0.00     786    71.8
 126    9:40   69.2    29    0.0   267      0.1   923.9    0.00     808    72.1
 126    9:50   71.0    27    0.0   328      0.1   924.1    0.00     828    72.4
 126   10:00   70.5    28    0.0   313      1.2   924.1    0.00     847    72.9
 126   10:10   70.7    28    0.0   279      0.1   924.0    0.00     865    73.3
 126   10:20   71.2    27    0.0   137      1.0   924.1    0.00     882    73.9
 126   10:30   72.4    26    0.1    71      2.3   924.0    0.00     894    74.5
 126   10:40   73.3    26    0.4   146      6.0   924.1    0.00     908    75.0
 126   10:50   73.4    25    0.0   133      0.2   924.0    0.00     920    75.6
 126   11:00   73.8    25    0.1   338      4.5   924.1    0.00     929    76.1
 126   11:10   75.4    24    0.1   139      2.8   924.0    0.00     938    76.7
 126   11:20   75.4    24    0.1   134      2.6   924.0    0.00     944    77.2
 126   11:30   75.2    24    0.0    98      0.9   923.9    0.00     949    77.7
 126   11:40   75.6    24    0.0   103      0.1   923.8    0.00     952    78.1
 126   11:50   76.8    23    2.5   138     11.5   923.7    0.00     954    78.5
 126   12:00   77.2    23    3.9   132      7.9   923.7    0.00     954    78.7
 126   12:10   78.7    22    2.8    81      7.5   923.6    0.00     953    79.1
 126   12:20   78.0    22    4.9   107      8.6   923.6    0.00     950    79.4
 126   12:30   79.3    21    2.8   170      8.9   923.5    0.00     944    79.7
 126   12:40   79.8    20    5.2   162     10.4   923.5    0.00     937    80.0
 126   12:50   80.3    20    1.6   174      6.6   923.4    0.00     928    80.4
 126   13:00   80.8    19    0.1   210      4.7   923.4    0.00     918    80.8
 126   13:10   81.4    18    0.6   176      5.5   923.4    0.00     908    81.2
 126   13:20   81.4    18    2.1   255      6.6   923.3    0.00     896    81.5

Return to Pahrump, Nevada graphs page.


Western Regional Climate Center,wrcc@dri.edu